Time;durP1;ratioP1;P1;durP2;ratioP2;P2;SDS_P1;SDS_P2;PMS_P1;PMS_P2;Temp;Humidity;BMP_temperature;BMP_pressure;BME280_temperature;BME280_humidity;BME280_pressure;Samples;Min_cycle;Max_cycle;Signal;HPM_P1;HPM_P2
2021/04/21 00:02:19;;;;;;;2.28;1.80;;;15.10;70.80;;;;;;5092755;28;20044;-40
2021/04/21 00:04:46;;;;;;;2.03;1.70;;;15.10;70.80;;;;;;5091146;28;20053;-41
2021/04/21 00:07:17;;;;;;;2.03;1.83;;;15.10;70.80;;;;;;5092697;28;20048;-41
2021/04/21 00:09:44;;;;;;;2.05;1.85;;;15.10;70.80;;;;;;5092121;28;20130;-41
2021/04/21 00:12:10;;;;;;;3.22;1.95;;;15.10;70.80;;;;;;5092569;28;20469;-42
2021/04/21 00:14:36;;;;;;;2.13;1.80;;;15.00;70.70;;;;;;5092813;28;20048;-45
2021/04/21 00:17:03;;;;;;;1.83;1.70;;;15.00;70.80;;;;;;5092627;28;20134;-41
2021/04/21 00:19:31;;;;;;;2.67;2.03;;;15.00;70.80;;;;;;5092881;28;20052;-40
2021/04/21 00:22:00;;;;;;;2.17;1.98;;;15.10;70.90;;;;;;5092799;28;20095;-42
2021/04/21 00:24:29;;;;;;;2.28;1.80;;;15.00;70.80;;;;;;5092368;28;20488;-39
2021/04/21 00:26:56;;;;;;;2.00;1.80;;;15.00;70.80;;;;;;5092847;28;20044;-41
2021/04/21 00:29:23;;;;;;;1.88;1.65;;;15.00;70.80;;;;;;5096094;28;20055;-40
2021/04/21 00:31:49;;;;;;;1.98;1.70;;;15.00;70.80;;;;;;5096285;28;20055;-39
2021/04/21 00:34:18;;;;;;;1.90;1.50;;;15.00;70.80;;;;;;5096351;28;20051;-39
2021/04/21 00:36:51;;;;;;;2.53;2.00;;;15.00;70.80;;;;;;5096371;28;20048;-41
2021/04/21 00:39:18;;;;;;;2.17;1.80;;;15.00;70.80;;;;;;5096099;28;20063;-39
2021/04/21 00:42:05;;;;;;;2.13;1.90;;;15.00;70.80;;;;;;5095906;28;20119;-39
2021/04/21 00:44:46;;;;;;;3.28;2.10;;;15.00;70.90;;;;;;5096247;28;20041;-40
2021/04/21 00:47:44;;;;;;;1.73;1.60;;;15.00;70.90;;;;;;5096143;28;20500;-42
2021/04/21 00:50:12;;;;;;;2.25;2.05;;;15.00;70.90;;;;;;5073383;28;20511;-39
2021/04/21 00:52:58;;;;;;;2.25;1.73;;;15.00;70.90;;;;;;5073714;28;20083;-42
2021/04/21 00:55:46;;;;;;;2.35;2.15;;;15.00;70.90;;;;;;5073492;28;20071;-43
2021/04/21 00:58:39;;;;;;;2.40;1.88;;;15.10;71.00;;;;;;5073212;28;20098;-40
2021/04/21 01:01:09;;;;;;;2.25;1.83;;;15.00;70.90;;;;;;5073468;28;20530;-40
2021/04/21 01:03:35;;;;;;;2.05;1.85;;;15.00;70.90;;;;;;5056379;28;20055;-40
2021/04/21 01:06:11;;;;;;;2.10;1.80;;;15.00;70.90;;;;;;5073278;28;20056;-42
2021/04/21 01:08:41;;;;;;;2.78;1.85;;;14.90;70.90;;;;;;5073087;28;20059;-40
2021/04/21 01:11:23;;;;;;;2.08;1.88;;;14.90;70.90;;;;;;5072955;28;20156;-39
2021/04/21 01:13:56;;;;;;;1.92;1.80;;;15.00;71.00;;;;;;5073087;28;20060;-41
2021/04/21 01:16:27;;;;;;;2.63;2.13;;;14.90;71.00;;;;;;5073175;28;20044;-40
2021/04/21 01:18:57;;;;;;;2.90;1.92;;;14.90;71.00;;;;;;5073105;28;20060;-39
2021/04/21 01:21:31;;;;;;;2.35;2.05;;;15.00;71.00;;;;;;5073134;28;20056;-45
2021/04/21 01:24:19;;;;;;;2.15;1.90;;;14.90;71.00;;;;;;5072963;28;20044;-40
2021/04/21 01:26:53;;;;;;;2.00;1.80;;;14.90;71.00;;;;;;5082848;28;20078;-40
2021/04/21 01:29:32;;;;;;;2.15;1.77;;;14.90;71.00;;;;;;5094882;28;20161;-44
2021/04/21 01:32:04;;;;;;;2.20;1.90;;;14.90;71.10;;;;;;5095173;28;20048;-41
2021/04/21 01:34:33;;;;;;;2.10;1.90;;;14.90;71.10;;;;;;5095383;28;20044;-41
2021/04/21 01:37:03;;;;;;;2.03;1.83;;;14.90;71.00;;;;;;5095227;28;20052;-42
2021/04/21 01:39:31;;;;;;;2.58;2.08;;;14.90;71.10;;;;;;5094456;28;20109;-39
2021/04/21 01:41:59;;;;;;;2.35;1.83;;;14.90;71.10;;;;;;5095219;28;20044;-41
2021/04/21 01:44:30;;;;;;;2.15;1.95;;;15.00;71.10;;;;;;5094739;28;20373;-41
2021/04/21 01:47:09;;;;;;;2.78;2.00;;;14.90;71.10;;;;;;5095000;28;20466;-40
2021/04/21 01:49:37;;;;;;;2.72;2.08;;;14.90;71.10;;;;;;5094683;28;20484;-39
2021/04/21 01:52:14;;;;;;;2.35;1.73;;;14.90;71.10;;;;;;5094874;28;20138;-40
2021/04/21 01:54:43;;;;;;;2.85;1.88;;;14.90;71.10;;;;;;5094905;28;20048;-41
2021/04/21 01:57:19;;;;;;;2.13;1.90;;;14.90;71.20;;;;;;5095005;28;20044;-43
2021/04/21 01:59:49;;;;;;;;;;;14.90;71.20;;;;;;5094923;28;20044;-42
2021/04/21 02:02:29;;;;;;;2.15;1.95;;;14.90;71.10;;;;;;5094674;28;19920;-40
2021/04/21 02:05:07;;;;;;;2.17;1.88;;;14.80;71.10;;;;;;5094931;28;20119;-40
2021/04/21 02:07:42;;;;;;;2.45;1.90;;;14.90;71.20;;;;;;5094433;28;20056;-39
2021/04/21 02:10:44;;;;;;;2.90;2.17;;;14.80;71.10;;;;;;5094368;28;20048;-40
2021/04/21 02:13:37;;;;;;;2.20;2.00;;;14.80;71.10;;;;;;5094322;28;20294;-40
2021/04/21 02:16:26;;;;;;;2.58;1.80;;;14.90;71.20;;;;;;5094277;28;20059;-40
2021/04/21 02:18:52;;;;;;;2.17;1.90;;;14.80;71.20;;;;;;5094387;28;20044;-40
2021/04/21 02:21:35;;;;;;;2.22;2.03;;;14.90;71.30;;;;;;5094071;28;20123;-40
2021/04/21 02:24:14;;;;;;;2.17;1.73;;;14.80;71.20;;;;;;5094067;28;20040;-38
2021/04/21 02:26:57;;;;;;;3.10;2.10;;;14.80;71.20;;;;;;5094239;28;20154;-39
2021/04/21 02:29:34;;;;;;;2.40;1.90;;;14.80;71.20;;;;;;5093799;28;20122;-40
2021/04/21 02:32:15;;;;;;;2.30;2.10;;;14.80;71.20;;;;;;5093721;28;20044;-40
2021/04/21 02:34:50;;;;;;;2.17;1.98;;;14.80;71.30;;;;;;5093714;28;20407;-39
2021/04/21 02:37:43;;;;;;;2.25;1.92;;;14.80;71.30;;;;;;5093706;28;20044;-40
2021/04/21 02:40:21;;;;;;;2.40;1.83;;;14.80;71.20;;;;;;5093786;28;20575;-39
2021/04/21 02:43:02;;;;;;;2.35;2.15;;;14.80;71.30;;;;;;5093952;28;20044;-41
2021/04/21 02:46:09;;;;;;;2.25;2.05;;;14.80;71.30;;;;;;5093772;28;20381;-41
2021/04/21 02:49:02;;;;;;;2.00;1.77;;;14.80;71.30;;;;;;5093866;28;20044;-39
2021/04/21 02:51:46;;;;;;;2.25;1.80;;;14.80;71.30;;;;;;5092863;28;20044;-39
2021/04/21 02:54:35;;;;;;;2.00;1.80;;;14.80;71.30;;;;;;5093536;28;20051;-39
2021/04/21 02:57:15;;;;;;;2.53;1.73;;;14.80;71.30;;;;;;5093616;28;20051;-40
2021/04/21 03:00:06;;;;;;;2.30;1.88;;;14.80;71.30;;;;;;5093659;28;20078;-42
2021/04/21 03:03:05;;;;;;;2.35;1.90;;;14.80;71.30;;;;;;5093335;28;20040;-41
2021/04/21 03:05:34;;;;;;;1.98;1.70;;;14.80;71.40;;;;;;5093322;28;20488;-39
2021/04/21 03:08:25;;;;;;;2.30;1.98;;;14.80;71.40;;;;;;5093795;28;20048;-41
2021/04/21 03:11:11;;;;;;;2.63;2.20;;;14.80;71.40;;;;;;5093334;28;20040;-40
2021/04/21 03:13:58;;;;;;;2.15;1.95;;;14.80;71.40;;;;;;5093446;28;20071;-40
2021/04/21 03:16:27;;;;;;;2.00;1.80;;;14.80;71.40;;;;;;5092825;28;20488;-40
2021/04/21 03:18:55;;;;;;;2.13;1.92;;;14.70;71.30;;;;;;5092949;28;20078;-39
2021/04/21 03:21:26;;;;;;;2.20;2.00;;;14.70;71.30;;;;;;5093409;28;20048;-41
2021/04/21 03:24:17;;;;;;;2.28;2.00;;;14.80;71.50;;;;;;5093299;28;20105;-41
2021/04/21 03:26:47;;;;;;;2.00;1.80;;;14.80;71.40;;;;;;5093173;28;20187;-39
2021/04/21 03:29:17;;;;;;;2.38;1.98;;;14.70;72.00;;;;;;5092984;28;20051;-42
2021/04/21 03:31:48;;;;;;;2.70;2.13;;;14.70;71.40;;;;;;5092386;28;20109;-39
2021/04/21 03:34:16;;;;;;;2.30;2.05;;;14.70;71.40;;;;;;5093093;28;20549;-41
2021/04/21 03:36:43;;;;;;;2.35;2.13;;;14.70;71.40;;;;;;5093096;28;20485;-40
2021/04/21 03:39:11;;;;;;;2.90;2.13;;;14.70;71.40;;;;;;5093330;28;20048;-40
2021/04/21 03:41:37;;;;;;;2.28;1.90;;;14.70;71.40;;;;;;5092924;28;20055;-39
2021/04/21 03:44:04;;;;;;;2.40;1.98;;;14.70;71.40;;;;;;5092794;28;20503;-39
2021/04/21 03:46:31;;;;;;;2.25;2.00;;;14.70;71.40;;;;;;5092830;28;20055;-40
2021/04/21 03:48:59;;;;;;;2.33;1.75;;;14.70;71.40;;;;;;5092833;28;20075;-39
2021/04/21 03:51:26;;;;;;;2.03;1.85;;;14.70;72.10;;;;;;5092794;28;20072;-39
2021/04/21 03:53:53;;;;;;;2.10;1.90;;;14.70;71.40;;;;;;5092870;28;20044;-41
2021/04/21 03:56:29;;;;;;;2.40;1.80;;;14.70;71.40;;;;;;5093078;28;20131;-40
2021/04/21 03:58:55;;;;;;;2.42;2.22;;;14.70;71.40;;;;;;5092810;28;20039;-37
2021/04/21 04:01:22;;;;;;;2.35;1.80;;;14.70;71.40;;;;;;5093882;28;20063;-39
2021/04/21 04:03:52;;;;;;;2.67;2.30;;;14.70;71.40;;;;;;5096753;28;20066;-39
2021/04/21 04:06:26;;;;;;;3.30;1.90;;;14.70;71.40;;;;;;5096828;28;20074;-41
2021/04/21 04:09:07;;;;;;;1.88;1.75;;;14.70;71.40;;;;;;5096610;28;20488;-40
2021/04/21 04:11:44;;;;;;;2.60;2.13;;;14.70;71.40;;;;;;5096526;28;20054;-40
2021/04/21 04:14:19;;;;;;;3.20;1.80;;;14.70;71.40;;;;;;5096004;28;20553;-38
2021/04/21 04:16:46;;;;;;;;;;;14.70;71.50;;;;;;5096357;28;20044;-41
2021/04/21 04:19:13;;;;;;;2.97;2.40;;;14.70;71.50;;;;;;5095116;28;19993;-39
2021/04/21 04:21:41;;;;;;;2.50;2.20;;;14.70;71.40;;;;;;5096366;28;20048;-39
2021/04/21 04:24:16;;;;;;;2.53;2.20;;;14.70;71.50;;;;;;5096835;28;20056;-40
2021/04/21 04:26:43;;;;;;;;;;;14.70;71.50;;;;;;5097251;28;20048;-40
2021/04/21 04:29:09;;;;;;;2.17;1.73;;;14.60;71.40;;;;;;5096285;28;20462;-40
2021/04/21 04:31:37;;;;;;;2.20;2.00;;;14.60;71.40;;;;;;5096204;28;20381;-40
2021/04/21 04:34:04;;;;;;;3.15;2.50;;;14.60;71.40;;;;;;5096104;28;20051;-41
2021/04/21 04:36:35;;;;;;;2.25;1.90;;;14.60;71.50;;;;;;5096215;28;20044;-40
2021/04/21 04:39:04;;;;;;;2.53;2.20;;;14.70;71.50;;;;;;5096304;28;20556;-40
2021/04/21 04:41:30;;;;;;;2.60;1.92;;;14.60;71.50;;;;;;5096341;28;20044;-42
2021/04/21 04:43:56;;;;;;;2.83;2.03;;;14.60;71.50;;;;;;5096144;28;20044;-43
2021/04/21 04:46:33;;;;;;;2.25;1.83;;;14.60;71.60;;;;;;5096178;28;20048;-40
2021/04/21 04:49:07;;;;;;;2.53;2.08;;;14.70;71.60;;;;;;5096092;28;20074;-41
2021/04/21 04:51:36;;;;;;;2.25;2.05;;;14.70;71.60;;;;;;5095836;28;20117;-41
2021/04/21 04:54:04;;;;;;;2.38;2.17;;;14.60;71.50;;;;;;5096098;28;20040;-39
2021/04/21 04:56:34;;;;;;;2.25;2.05;;;14.60;71.50;;;;;;5095968;28;20044;-41
2021/04/21 04:59:05;;;;;;;2.47;1.83;;;14.60;71.60;;;;;;5095883;28;20040;-39
2021/04/21 05:01:54;;;;;;;2.55;2.28;;;14.60;71.60;;;;;;5095843;28;20055;-42
2021/04/21 05:04:25;;;;;;;2.08;1.83;;;14.60;71.50;;;;;;5095740;28;20055;-39
2021/04/21 05:07:02;;;;;;;2.13;1.92;;;14.60;71.50;;;;;;5095645;28;20051;-40
2021/04/21 05:09:31;;;;;;;3.75;2.20;;;14.60;71.60;;;;;;5094481;28;20094;-39
2021/04/21 05:11:58;;;;;;;2.67;2.20;;;14.60;71.50;;;;;;5095563;28;20075;-39
2021/04/21 05:14:24;;;;;;;2.20;1.90;;;14.50;71.50;;;;;;5094566;28;20044;-40
2021/04/21 05:16:51;;;;;;;2.33;1.80;;;14.60;71.60;;;;;;5095733;28;20135;-39
2021/04/21 05:19:54;;;;;;;2.20;2.00;;;14.60;71.60;;;;;;5095592;28;20094;-40
2021/04/21 05:23:12;;;;;;;2.50;2.20;;;14.60;71.60;;;;;;5094963;28;20101;-40
2021/04/21 05:26:12;;;;;;;2.53;2.00;;;14.60;71.60;;;;;;5012749;28;20130;-40
2021/04/21 05:29:02;;;;;;;2.20;2.00;;;14.60;71.60;;;;;;5012918;28;20064;-38
2021/04/21 05:31:50;;;;;;;2.40;1.98;;;14.60;71.60;;;;;;5012959;28;20069;-40
2021/04/21 05:34:43;;;;;;;2.47;2.00;;;14.60;71.60;;;;;;5013048;28;20046;-39
2021/04/21 05:37:34;;;;;;;2.63;2.20;;;14.60;71.60;;;;;;5012395;28;20062;-40
2021/04/21 05:40:25;;;;;;;2.15;1.95;;;14.60;71.60;;;;;;4954288;29;20145;-37
2021/04/21 05:43:02;;;;;;;2.33;1.83;;;14.60;71.60;;;;;;4954407;29;20118;-38
2021/04/21 05:45:48;;;;;;;2.03;1.70;;;14.60;71.60;;;;;;4954157;29;20051;-40
2021/04/21 05:48:46;;;;;;;2.60;1.90;;;14.60;71.60;;;;;;4954330;29;20118;-39
2021/04/21 05:51:51;;;;;;;1.83;1.70;;;14.60;71.60;;;;;;4954100;29;20055;-39
2021/04/21 05:54:47;;;;;;;2.40;1.70;;;14.60;71.60;;;;;;4954104;29;20534;-40
2021/04/21 05:57:31;;;;;;;2.28;2.08;;;14.60;71.70;;;;;;4954334;29;20067;-39
2021/04/21 06:00:15;;;;;;;3.42;2.15;;;14.60;71.70;;;;;;4954380;29;20051;-40
2021/04/21 06:02:45;;;;;;;2.88;2.17;;;14.60;71.70;;;;;;5026084;28;20047;-40
2021/04/21 06:05:13;;;;;;;2.17;1.98;;;14.60;71.70;;;;;;5051986;28;20501;-39
2021/04/21 06:07:43;;;;;;;2.03;1.83;;;14.60;71.70;;;;;;5034980;28;20044;-39
2021/04/21 06:10:27;;;;;;;2.60;2.33;;;14.60;71.70;;;;;;5051749;28;20052;-39
2021/04/21 06:13:00;;;;;;;2.45;2.05;;;14.60;71.70;;;;;;5051975;28;20136;-38
2021/04/21 06:15:29;;;;;;;2.42;1.90;;;14.60;71.70;;;;;;5051811;28;20049;-39
2021/04/21 06:17:58;;;;;;;1.95;1.75;;;14.60;72.40;;;;;;5089361;28;20368;-38
2021/04/21 06:20:33;;;;;;;2.40;2.20;;;14.60;71.70;;;;;;5094217;28;20105;-39
2021/04/21 06:23:29;;;;;;;2.35;2.15;;;14.60;71.80;;;;;;5093869;28;20052;-39
2021/04/21 06:26:02;;;;;;;;;;;14.60;72.40;;;;;;5072023;28;20048;-39
2021/04/21 06:28:28;;;;;;;2.58;1.90;;;14.60;71.80;;;;;;5071740;28;19920;-39
2021/04/21 06:31:08;;;;;;;2.30;2.00;;;14.60;71.80;;;;;;5071303;28;20092;-38
2021/04/21 06:33:44;;;;;;;2.33;2.03;;;14.50;71.70;;;;;;5071599;28;20155;-40
2021/04/21 06:36:13;;;;;;;2.53;2.30;;;14.60;71.80;;;;;;5071058;28;20049;-40
2021/04/21 06:38:40;;;;;;;2.50;2.20;;;14.50;71.70;;;;;;5071104;28;20057;-39
2021/04/21 06:41:07;;;;;;;2.45;2.10;;;14.50;71.70;;;;;;5071437;28;20048;-39
2021/04/21 06:43:35;;;;;;;2.10;1.90;;;14.50;71.70;;;;;;5071404;28;20052;-38
2021/04/21 06:46:07;;;;;;;2.60;2.20;;;14.60;71.80;;;;;;5071335;28;20052;-38
2021/04/21 06:48:37;;;;;;;2.25;2.00;;;14.50;71.80;;;;;;5071175;28;20056;-39
2021/04/21 06:51:10;;;;;;;3.22;2.58;;;14.50;71.70;;;;;;5070959;28;20048;-39
2021/04/21 06:53:43;;;;;;;3.28;2.55;;;14.60;71.80;;;;;;5070845;28;20148;-38
2021/04/21 06:56:08;;;;;;;2.53;2.30;;;14.60;71.80;;;;;;5070956;28;20117;-38
2021/04/21 06:58:38;;;;;;;2.95;2.60;;;14.60;71.80;;;;;;5071095;28;20048;-42
2021/04/21 07:01:15;;;;;;;3.83;3.10;;;14.60;71.80;;;;;;5072634;28;20123;-39
2021/04/21 07:03:43;;;;;;;2.72;2.28;;;14.50;71.70;;;;;;5093375;28;20135;-39
2021/04/21 07:06:09;;;;;;;19.63;13.88;;;14.60;71.80;;;;;;5093507;28;20047;-39
2021/04/21 07:08:39;;;;;;;12.68;8.50;;;14.40;71.40;;;;;;5093459;28;20077;-41
2021/04/21 07:11:11;;;;;;;16.00;9.43;;;14.40;71.60;;;;;;5093239;28;20048;-41
2021/04/21 07:13:44;;;;;;;28.80;18.02;;;14.40;71.70;;;;;;5093366;28;20048;-44
2021/04/21 07:16:33;;;;;;;23.92;14.60;;;14.40;71.50;;;;;;5091797;28;20097;-42
2021/04/21 07:19:21;;;;;;;22.45;14.13;;;14.30;72.10;;;;;;5093209;28;20556;-43
2021/04/21 07:21:49;;;;;;;21.25;12.70;;;14.30;71.50;;;;;;5092997;28;20393;-43
2021/04/21 07:24:16;;;;;;;26.10;14.73;;;14.30;71.50;;;;;;5093082;28;20051;-44
2021/04/21 07:26:45;;;;;;;19.95;12.07;;;14.30;71.50;;;;;;5092852;28;20059;-46
2021/04/21 07:29:22;;;;;;;18.88;12.82;;;14.30;71.50;;;;;;5092979;28;20040;-44
2021/04/21 07:31:49;;;;;;;19.88;12.48;;;14.30;71.50;;;;;;5092749;28;20063;-41
2021/04/21 07:34:30;;;;;;;22.63;13.85;;;14.40;71.60;;;;;;5093168;28;20097;-43
2021/04/21 07:36:56;;;;;;;18.65;12.73;;;14.40;71.60;;;;;;5092540;28;20074;-47
2021/04/21 07:39:36;;;;;;;22.17;12.27;;;14.40;71.60;;;;;;5092957;28;20097;-43
2021/04/21 07:42:18;;;;;;;18.73;12.63;;;14.40;71.60;;;;;;5091235;28;20043;-45
2021/04/21 07:44:51;;;;;;;21.73;12.95;;;14.40;71.70;;;;;;5092829;28;20117;-42
2021/04/21 07:47:21;;;;;;;22.92;13.88;;;14.40;71.70;;;;;;5092850;28;20039;-43
2021/04/21 07:49:55;;;;;;;22.55;13.50;;;14.40;71.60;;;;;;5092670;28;20082;-42
2021/04/21 07:52:31;;;;;;;17.67;12.13;;;14.40;71.70;;;;;;5092834;28;20044;-41
2021/04/21 07:55:16;;;;;;;18.17;12.43;;;14.40;71.60;;;;;;5092814;28;20112;-41
2021/04/21 07:57:58;;;;;;;18.20;12.05;;;14.40;71.70;;;;;;5092437;28;20044;-46
2021/04/21 08:00:30;;;;;;;17.30;12.55;;;14.40;71.70;;;;;;5092497;28;20077;-40
2021/04/21 08:03:25;;;;;;;18.30;12.15;;;14.40;71.60;;;;;;5091922;28;20048;-43
2021/04/21 08:05:54;;;;;;;21.50;14.20;;;14.40;71.50;;;;;;5092498;28;20052;-41
2021/04/21 08:08:27;;;;;;;20.48;14.25;;;14.40;71.80;;;;;;5092664;28;20044;-40
2021/04/21 08:10:53;;;;;;;19.52;13.30;;;14.40;71.20;;;;;;5092758;28;20048;-41
2021/04/21 08:13:45;;;;;;;19.25;13.88;;;14.40;71.30;;;;;;5092194;28;20050;-43
2021/04/21 08:16:20;;;;;;;18.92;12.98;;;14.30;71.20;;;;;;5092088;28;20507;-43
2021/04/21 08:18:45;;;;;;;17.20;12.63;;;14.30;71.20;;;;;;5092187;28;20067;-40
2021/04/21 08:21:12;;;;;;;20.15;12.63;;;14.30;71.30;;;;;;5092339;28;20294;-40
2021/04/21 08:23:38;;;;;;;16.85;12.95;;;14.30;71.30;;;;;;5092135;28;20377;-42
2021/04/21 08:26:04;;;;;;;16.50;11.50;;;14.30;71.40;;;;;;5092029;28;20048;-40
2021/04/21 08:28:30;;;;;;;19.55;12.98;;;14.30;71.40;;;;;;5091847;28;20117;-41
2021/04/21 08:31:00;;;;;;;18.08;12.27;;;14.40;71.40;;;;;;5091638;28;20480;-40
2021/04/21 08:33:27;;;;;;;19.42;11.93;;;14.30;71.40;;;;;;5092249;28;20044;-39
2021/04/21 08:35:53;;;;;;;18.55;12.27;;;14.30;71.50;;;;;;5091712;28;20050;-41
2021/04/21 08:38:18;;;;;;;17.83;12.13;;;14.40;71.50;;;;;;5091891;28;20119;-43
2021/04/21 08:40:44;;;;;;;16.33;12.13;;;14.40;71.50;;;;;;5091713;28;20052;-42
2021/04/21 08:43:10;;;;;;;17.80;11.48;;;14.40;71.50;;;;;;5090464;28;20059;-37
2021/04/21 08:45:36;;;;;;;17.88;11.60;;;14.30;71.50;;;;;;5069764;28;20053;-39
2021/04/21 08:48:03;;;;;;;17.25;11.57;;;14.40;71.50;;;;;;5067814;28;20135;-39
2021/04/21 08:50:34;;;;;;;15.38;11.63;;;14.40;71.50;;;;;;5070355;28;20056;-38
2021/04/21 08:53:05;;;;;;;16.90;11.25;;;14.40;71.60;;;;;;5070535;28;20044;-39
2021/04/21 08:55:32;;;;;;;17.20;10.98;;;14.40;71.50;;;;;;5070520;28;20528;-39
2021/04/21 08:58:00;;;;;;;16.10;11.00;;;14.40;71.50;;;;;;5070231;28;20056;-39
2021/04/21 09:00:25;;;;;;;16.00;10.38;;;14.40;71.50;;;;;;5070133;28;20479;-42
2021/04/21 09:02:51;;;;;;;15.73;10.98;;;14.40;71.50;;;;;;5070490;28;20048;-38
2021/04/21 09:05:19;;;;;;;13.40;9.93;;;14.40;71.50;;;;;;5070334;28;20051;-39
2021/04/21 09:07:46;;;;;;;14.57;10.15;;;14.40;71.40;;;;;;5070516;28;20562;-38
2021/04/21 09:10:15;;;;;;;12.57;9.07;;;14.40;71.50;;;;;;5069920;28;20523;-38
2021/04/21 09:12:41;;;;;;;14.52;10.77;;;14.40;71.70;;;;;;5070107;28;20080;-38
2021/04/21 09:15:09;;;;;;;12.90;9.82;;;14.40;71.40;;;;;;5069548;28;20048;-39
2021/04/21 09:17:57;;;;;;;12.98;9.82;;;14.40;71.40;;;;;;5070224;28;20476;-39
2021/04/21 09:20:26;;;;;;;14.23;9.55;;;14.40;71.40;;;;;;5070191;28;20625;-40
2021/04/21 09:23:04;;;;;;;12.10;8.50;;;14.40;71.40;;;;;;5067326;28;20052;-37
2021/04/21 09:25:36;;;;;;;12.98;9.13;;;14.40;71.30;;;;;;5069046;28;20147;-39
2021/04/21 09:28:01;;;;;;;11.20;8.48;;;14.40;71.30;;;;;;5069883;28;20052;-38
2021/04/21 09:30:28;;;;;;;11.65;8.93;;;14.40;71.30;;;;;;5085098;28;20048;-41
2021/04/21 09:32:56;;;;;;;12.07;8.27;;;14.40;71.30;;;;;;5089760;28;20056;-39
2021/04/21 09:35:26;;;;;;;11.77;8.50;;;14.40;71.30;;;;;;5090226;28;20130;-39
2021/04/21 09:38:04;;;;;;;11.35;8.05;;;14.40;71.30;;;;;;5089983;28;20127;-39
2021/04/21 09:40:55;;;;;;;11.20;7.55;;;14.40;71.20;;;;;;5090257;28;20081;-39
2021/04/21 09:43:26;;;;;;;10.40;8.25;;;14.50;71.30;;;;;;5090262;28;20052;-40
2021/04/21 09:45:54;;;;;;;11.02;7.80;;;14.50;71.30;;;;;;5090058;28;20058;-39
2021/04/21 09:48:24;;;;;;;11.70;8.00;;;14.50;71.20;;;;;;5089442;28;20484;-41
2021/04/21 09:50:59;;;;;;;10.13;7.10;;;14.50;71.20;;;;;;5089874;28;20052;-40
2021/04/21 09:53:29;;;;;;;10.82;7.45;;;14.50;71.20;;;;;;5090082;28;20403;-40
2021/04/21 09:56:17;;;;;;;11.10;7.53;;;14.50;71.20;;;;;;5089512;28;20052;-39
2021/04/21 09:58:48;;;;;;;11.00;6.90;;;14.50;71.20;;;;;;5089758;28;20418;-39
2021/04/21 10:01:31;;;;;;;12.85;7.05;;;14.50;71.20;;;;;;5088718;28;20044;-40
2021/04/21 10:04:06;;;;;;;9.20;6.28;;;14.50;71.20;;;;;;5089296;28;20515;-40
2021/04/21 10:06:32;;;;;;;9.90;6.50;;;14.50;71.80;;;;;;5089762;28;20476;-40
2021/04/21 10:08:58;;;;;;;8.98;6.15;;;14.50;71.20;;;;;;5089060;28;20055;-40
2021/04/21 10:11:24;;;;;;;9.80;6.78;;;14.50;71.20;;;;;;5089540;28;20052;-39
2021/04/21 10:13:52;;;;;;;9.73;6.57;;;14.50;71.10;;;;;;5089102;28;20437;-40
2021/04/21 10:16:19;;;;;;;10.43;6.50;;;14.50;71.20;;;;;;5089595;28;20067;-41
2021/04/21 10:18:45;;;;;;;9.13;6.97;;;14.50;71.20;;;;;;5089439;28;20048;-41
2021/04/21 10:21:13;;;;;;;10.27;6.38;;;14.60;71.20;;;;;;5088881;28;20051;-43
2021/04/21 10:23:41;;;;;;;7.22;5.43;;;14.60;71.20;;;;;;5089241;28;20044;-40
2021/04/21 10:26:09;;;;;;;10.43;6.40;;;14.60;71.20;;;;;;5088596;28;20552;-41
2021/04/21 10:28:40;;;;;;;7.30;5.65;;;14.60;71.20;;;;;;5088967;28;20113;-41
2021/04/21 10:31:09;;;;;;;6.75;5.20;;;14.60;71.10;;;;;;5067965;28;20554;-41
2021/04/21 10:33:36;;;;;;;7.20;5.53;;;14.60;71.10;;;;;;5076973;28;20564;-40
2021/04/21 10:36:02;;;;;;;8.15;5.97;;;14.60;71.10;;;;;;5093403;28;20511;-39
2021/04/21 10:38:29;;;;;;;7.05;5.03;;;14.70;71.10;;;;;;5088486;28;20500;-40
2021/04/21 10:41:38;;;;;;;8.82;6.05;;;14.60;71.10;;;;;;5092342;28;20066;-40
2021/04/21 10:44:09;;;;;;;8.10;5.30;;;14.60;71.00;;;;;;5091939;28;20048;-42
2021/04/21 10:46:57;;;;;;;7.68;5.88;;;14.60;71.10;;;;;;5092204;28;20043;-42
2021/04/21 10:49:51;;;;;;;6.88;4.95;;;14.60;71.00;;;;;;5092856;28;20086;-40
2021/04/21 10:52:23;;;;;;;7.00;5.10;;;14.70;71.10;;;;;;5112980;28;20406;-41
2021/04/21 10:54:51;;;;;;;7.65;4.68;;;14.70;71.10;;;;;;5083401;28;20484;-41
2021/04/21 10:57:19;;;;;;;7.00;4.80;;;14.70;71.10;;;;;;5073575;28;20047;-41
2021/04/21 11:00:04;;;;;;;7.10;5.13;;;14.70;71.10;;;;;;5073227;28;20488;-41
2021/04/21 11:02:42;;;;;;;6.57;5.18;;;14.70;71.00;;;;;;5072707;28;20558;-41
2021/04/21 11:05:19;;;;;;;6.22;4.18;;;14.80;71.10;;;;;;5075755;28;20062;-45
2021/04/21 11:07:53;;;;;;;6.70;4.25;;;14.70;71.00;;;;;;5092786;28;20082;-41
2021/04/21 11:10:45;;;;;;;6.57;4.43;;;14.70;71.00;;;;;;5092790;28;20083;-45
2021/04/21 11:13:12;;;;;;;5.32;4.35;;;14.70;70.90;;;;;;5090243;28;20130;-44
2021/04/21 11:15:42;;;;;;;6.32;3.85;;;14.70;70.90;;;;;;5091743;28;20040;-41
2021/04/21 11:18:08;;;;;;;6.03;4.15;;;14.80;71.00;;;;;;5092934;28;20055;-43
2021/04/21 11:20:46;;;;;;;5.60;4.20;;;14.80;70.90;;;;;;5093131;28;20147;-43
2021/04/21 11:23:56;;;;;;;6.10;4.22;;;14.80;70.90;;;;;;5084498;28;20088;-47
2021/04/21 11:26:28;;;;;;;5.95;3.65;;;14.80;70.90;;;;;;5083954;28;20043;-43
2021/04/21 11:29:14;;;;;;;7.03;4.00;;;14.80;70.90;;;;;;5108387;28;20055;-46
2021/04/21 11:31:48;;;;;;;5.75;4.22;;;14.80;70.90;;;;;;5107098;28;20139;-43
2021/04/21 11:34:20;;;;;;;5.15;3.42;;;14.80;70.90;;;;;;5092765;28;20044;-43
2021/04/21 11:37:02;;;;;;;7.15;4.05;;;14.80;70.90;;;;;;5090820;28;20052;-42
2021/04/21 11:39:43;;;;;;;7.88;3.83;;;14.90;71.00;;;;;;5092944;28;20079;-44
2021/04/21 11:42:19;;;;;;;6.45;3.72;;;14.90;71.00;;;;;;5092955;28;20040;-43
2021/04/21 11:44:47;;;;;;;4.63;3.58;;;14.80;70.90;;;;;;5104525;28;20126;-42
2021/04/21 11:47:48;;;;;;;5.15;3.95;;;14.90;71.00;;;;;;5113022;28;20100;-43
2021/04/21 11:50:17;;;;;;;5.55;3.40;;;14.90;70.90;;;;;;5112716;28;20050;-43
2021/04/21 11:53:06;;;;;;;4.53;3.10;;;14.90;70.90;;;;;;5112011;28;20059;-43
2021/04/21 11:55:55;;;;;;;5.22;3.60;;;14.90;70.80;;;;;;5112894;28;20044;-43
2021/04/21 11:58:27;;;;;;;4.28;3.33;;;14.90;70.80;;;;;;5113194;28;20122;-44
2021/04/21 12:01:17;;;;;;;4.25;3.20;;;14.90;70.80;;;;;;5112170;28;20046;-44
2021/04/21 12:03:45;;;;;;;4.53;3.13;;;15.10;70.90;;;;;;5112766;28;20046;-44
2021/04/21 12:06:13;;;;;;;5.20;3.30;;;15.00;71.50;;;;;;5098311;28;20044;-45
2021/04/21 12:08:47;;;;;;;4.18;3.28;;;15.00;70.80;;;;;;5091348;28;20492;-43
2021/04/21 12:11:13;;;;;;;4.65;3.05;;;15.00;70.70;;;;;;5092340;28;20125;-43
2021/04/21 12:13:41;;;;;;;5.00;3.65;;;15.00;70.70;;;;;;5091525;28;20044;-42
2021/04/21 12:16:12;;;;;;;4.65;3.10;;;14.90;70.70;;;;;;5092000;28;20051;-43
2021/04/21 12:18:48;;;;;;;4.07;3.03;;;15.00;70.70;;;;;;5090667;28;20044;-43
2021/04/21 12:21:17;;;;;;;4.72;2.90;;;15.10;70.70;;;;;;5091020;28;20084;-44
2021/04/21 12:23:44;;;;;;;5.68;3.38;;;15.00;70.60;;;;;;5095909;28;20139;-43
2021/04/21 12:26:19;;;;;;;4.85;3.00;;;15.10;70.60;;;;;;5096481;28;20047;-45
2021/04/21 12:28:54;;;;;;;4.05;2.95;;;15.10;70.60;;;;;;5095822;28;20071;-45
2021/04/21 12:31:22;;;;;;;3.65;2.55;;;15.10;70.60;;;;;;5083521;28;20071;-39
2021/04/21 12:33:49;;;;;;;4.45;3.08;;;15.10;70.50;;;;;;5078922;28;20095;-41
2021/04/21 12:36:17;;;;;;;4.18;2.60;;;15.20;70.60;;;;;;5070684;28;20049;-40
2021/04/21 12:38:57;;;;;;;4.25;2.60;;;15.20;70.60;;;;;;5070119;28;20041;-40
2021/04/21 12:41:23;;;;;;;4.32;2.53;;;15.20;70.60;;;;;;5071190;28;20514;-40
2021/04/21 12:43:49;;;;;;;3.95;2.40;;;15.20;70.50;;;;;;5089936;28;20102;-45
2021/04/21 12:46:24;;;;;;;3.28;2.70;;;15.20;70.50;;;;;;5088049;28;20420;-40
2021/04/21 12:48:55;;;;;;;;;;;15.20;70.40;;;;;;5073360;28;20084;-40
2021/04/21 12:51:24;;;;;;;3.63;2.15;;;15.20;70.40;;;;;;5091068;28;19924;-41
2021/04/21 12:53:51;;;;;;;3.28;2.40;;;15.20;70.40;;;;;;5089801;28;20114;-41
2021/04/21 12:56:17;;;;;;;4.88;2.60;;;15.20;70.30;;;;;;5091345;28;20052;-41
2021/04/21 12:58:46;;;;;;;4.60;3.00;;;15.20;70.30;;;;;;5090548;28;20048;-41
2021/04/21 13:01:19;;;;;;;4.45;2.53;;;15.20;70.30;;;;;;5090298;28;20385;-42
2021/04/21 13:04:02;;;;;;;4.18;2.30;;;15.20;70.20;;;;;;5090375;28;20404;-40
2021/04/21 13:06:45;;;;;;;3.20;2.17;;;15.30;70.30;;;;;;5090581;28;20116;-41
2021/04/21 13:09:18;;;;;;;4.45;2.63;;;15.30;70.30;;;;;;5089419;28;20048;-40
2021/04/21 13:11:46;;;;;;;3.30;1.95;;;15.30;70.20;;;;;;5090273;28;20131;-41
2021/04/21 13:14:12;;;;;;;4.43;2.33;;;15.30;70.20;;;;;;5089689;28;20055;-40
2021/04/21 13:16:40;;;;;;;3.80;2.65;;;15.30;70.10;;;;;;5082520;28;20052;-41
2021/04/21 13:19:36;;;;;;;3.45;1.95;;;15.30;70.10;;;;;;5081821;28;20408;-39
2021/04/21 13:22:13;;;;;;;3.45;2.22;;;15.30;70.00;;;;;;5066587;28;20068;-40